sensor_id;sensor_type;location;lat;lon;timestamp;temperature;humidity
35325;DHT22;35135;47.510;19.036;2023-04-24T00:01:43;23.40;46.40
35325;DHT22;35135;47.510;19.036;2023-04-24T00:04:09;23.40;45.70
35325;DHT22;35135;47.510;19.036;2023-04-24T00:06:36;23.40;45.90
35325;DHT22;35135;47.510;19.036;2023-04-24T00:09:05;23.40;45.90
35325;DHT22;35135;47.510;19.036;2023-04-24T00:11:31;23.40;45.80
35325;DHT22;35135;47.510;19.036;2023-04-24T00:13:57;23.40;45.80
35325;DHT22;35135;47.510;19.036;2023-04-24T00:16:23;23.40;46.00
35325;DHT22;35135;47.510;19.036;2023-04-24T00:18:48;23.40;46.00
35325;DHT22;35135;47.510;19.036;2023-04-24T00:21:15;23.40;46.00
35325;DHT22;35135;47.510;19.036;2023-04-24T00:23:43;23.40;46.10
35325;DHT22;35135;47.510;19.036;2023-04-24T00:26:09;23.40;46.10
35325;DHT22;35135;47.510;19.036;2023-04-24T00:28:35;23.40;46.10
35325;DHT22;35135;47.510;19.036;2023-04-24T00:31:01;23.40;46.20
35325;DHT22;35135;47.510;19.036;2023-04-24T00:33:27;23.40;46.20
35325;DHT22;35135;47.510;19.036;2023-04-24T00:35:52;23.40;46.20
35325;DHT22;35135;47.510;19.036;2023-04-24T00:38:18;23.40;46.20
35325;DHT22;35135;47.510;19.036;2023-04-24T00:40:44;23.40;46.20
35325;DHT22;35135;47.510;19.036;2023-04-24T00:43:10;23.40;46.20
35325;DHT22;35135;47.510;19.036;2023-04-24T00:45:37;23.40;46.20
35325;DHT22;35135;47.510;19.036;2023-04-24T00:48:03;23.40;46.30
35325;DHT22;35135;47.510;19.036;2023-04-24T00:50:29;23.40;46.20
35325;DHT22;35135;47.510;19.036;2023-04-24T00:52:56;23.40;46.30
35325;DHT22;35135;47.510;19.036;2023-04-24T00:55:21;23.40;46.30
35325;DHT22;35135;47.510;19.036;2023-04-24T00:57:48;23.40;46.30
35325;DHT22;35135;47.510;19.036;2023-04-24T01:00:15;23.40;46.30
35325;DHT22;35135;47.510;19.036;2023-04-24T01:02:43;23.40;46.40
35325;DHT22;35135;47.510;19.036;2023-04-24T01:05:11;23.40;46.30
35325;DHT22;35135;47.510;19.036;2023-04-24T01:07:39;23.40;46.40
35325;DHT22;35135;47.510;19.036;2023-04-24T01:10:07;23.40;46.30
35325;DHT22;35135;47.510;19.036;2023-04-24T01:12:33;23.30;46.30
35325;DHT22;35135;47.510;19.036;2023-04-24T01:14:59;23.40;46.40
35325;DHT22;35135;47.510;19.036;2023-04-24T01:17:25;23.30;46.30
35325;DHT22;35135;47.510;19.036;2023-04-24T01:19:50;23.30;46.30
35325;DHT22;35135;47.510;19.036;2023-04-24T01:22:19;23.30;46.30
35325;DHT22;35135;47.510;19.036;2023-04-24T01:24:46;23.30;46.40
35325;DHT22;35135;47.510;19.036;2023-04-24T01:27:12;23.30;46.40
35325;DHT22;35135;47.510;19.036;2023-04-24T01:29:39;23.30;46.30
35325;DHT22;35135;47.510;19.036;2023-04-24T01:32:05;23.40;46.30
35325;DHT22;35135;47.510;19.036;2023-04-24T01:34:31;23.30;46.40
35325;DHT22;35135;47.510;19.036;2023-04-24T01:36:57;23.30;46.30
35325;DHT22;35135;47.510;19.036;2023-04-24T01:39:23;23.40;46.40
35325;DHT22;35135;47.510;19.036;2023-04-24T01:41:51;23.30;46.30
35325;DHT22;35135;47.510;19.036;2023-04-24T01:44:18;23.30;46.40
35325;DHT22;35135;47.510;19.036;2023-04-24T01:46:44;23.40;46.40
35325;DHT22;35135;47.510;19.036;2023-04-24T01:49:10;23.30;46.40
35325;DHT22;35135;47.510;19.036;2023-04-24T01:51:36;23.30;46.30
35325;DHT22;35135;47.510;19.036;2023-04-24T01:54:02;23.30;46.30
35325;DHT22;35135;47.510;19.036;2023-04-24T01:56:29;23.30;46.30
35325;DHT22;35135;47.510;19.036;2023-04-24T01:58:56;23.40;46.40
35325;DHT22;35135;47.510;19.036;2023-04-24T02:01:24;23.30;46.40
35325;DHT22;35135;47.510;19.036;2023-04-24T02:03:50;23.30;46.40
35325;DHT22;35135;47.510;19.036;2023-04-24T02:06:16;23.30;46.20
35325;DHT22;35135;47.510;19.036;2023-04-24T02:08:42;23.30;46.40
35325;DHT22;35135;47.510;19.036;2023-04-24T02:11:10;23.30;46.20
35325;DHT22;35135;47.510;19.036;2023-04-24T02:13:36;23.30;46.30
35325;DHT22;35135;47.510;19.036;2023-04-24T02:16:02;23.30;46.30
35325;DHT22;35135;47.510;19.036;2023-04-24T02:18:27;23.30;46.40
35325;DHT22;35135;47.510;19.036;2023-04-24T02:20:54;23.30;46.30
35325;DHT22;35135;47.510;19.036;2023-04-24T02:23:19;23.30;46.30
35325;DHT22;35135;47.510;19.036;2023-04-24T02:25:45;23.30;46.40
35325;DHT22;35135;47.510;19.036;2023-04-24T02:28:11;23.30;46.40
35325;DHT22;35135;47.510;19.036;2023-04-24T02:30:37;23.30;46.40
35325;DHT22;35135;47.510;19.036;2023-04-24T02:33:02;23.30;46.40
35325;DHT22;35135;47.510;19.036;2023-04-24T02:35:29;23.30;46.40
35325;DHT22;35135;47.510;19.036;2023-04-24T02:37:55;23.30;46.40
35325;DHT22;35135;47.510;19.036;2023-04-24T02:40:20;23.30;46.30
35325;DHT22;35135;47.510;19.036;2023-04-24T02:42:46;23.30;46.30
35325;DHT22;35135;47.510;19.036;2023-04-24T02:45:12;23.30;46.40
35325;DHT22;35135;47.510;19.036;2023-04-24T02:47:37;23.30;46.40
35325;DHT22;35135;47.510;19.036;2023-04-24T02:50:03;23.30;46.30
35325;DHT22;35135;47.510;19.036;2023-04-24T02:52:30;23.30;46.40
35325;DHT22;35135;47.510;19.036;2023-04-24T02:54:55;23.30;46.40
35325;DHT22;35135;47.510;19.036;2023-04-24T02:57:21;23.30;46.40
35325;DHT22;35135;47.510;19.036;2023-04-24T02:59:47;23.30;46.50
35325;DHT22;35135;47.510;19.036;2023-04-24T03:02:12;23.30;46.40
35325;DHT22;35135;47.510;19.036;2023-04-24T03:04:38;23.30;46.40
35325;DHT22;35135;47.510;19.036;2023-04-24T03:07:05;23.30;46.40
35325;DHT22;35135;47.510;19.036;2023-04-24T03:09:31;23.30;46.40
35325;DHT22;35135;47.510;19.036;2023-04-24T03:11:56;23.30;46.60
35325;DHT22;35135;47.510;19.036;2023-04-24T03:14:23;23.30;46.40
35325;DHT22;35135;47.510;19.036;2023-04-24T03:16:49;23.30;46.40
35325;DHT22;35135;47.510;19.036;2023-04-24T03:19:15;23.30;46.40
35325;DHT22;35135;47.510;19.036;2023-04-24T03:21:41;23.30;46.50
35325;DHT22;35135;47.510;19.036;2023-04-24T03:24:07;23.30;46.40
35325;DHT22;35135;47.510;19.036;2023-04-24T03:26:34;23.30;46.60
35325;DHT22;35135;47.510;19.036;2023-04-24T03:28:59;23.30;46.60
35325;DHT22;35135;47.510;19.036;2023-04-24T03:31:25;23.30;46.60
35325;DHT22;35135;47.510;19.036;2023-04-24T03:33:50;23.30;46.50
35325;DHT22;35135;47.510;19.036;2023-04-24T03:36:16;23.30;46.50
35325;DHT22;35135;47.510;19.036;2023-04-24T03:38:43;23.30;46.70
35325;DHT22;35135;47.510;19.036;2023-04-24T03:41:08;23.30;46.70
35325;DHT22;35135;47.510;19.036;2023-04-24T03:43:34;23.30;46.60
35325;DHT22;35135;47.510;19.036;2023-04-24T03:46:00;23.30;46.70
35325;DHT22;35135;47.510;19.036;2023-04-24T03:48:26;23.30;46.70
35325;DHT22;35135;47.510;19.036;2023-04-24T03:50:51;23.30;46.70
35325;DHT22;35135;47.510;19.036;2023-04-24T03:53:17;23.30;46.70
35325;DHT22;35135;47.510;19.036;2023-04-24T03:55:43;23.30;46.70
35325;DHT22;35135;47.510;19.036;2023-04-24T03:58:08;23.30;46.70
35325;DHT22;35135;47.510;19.036;2023-04-24T04:00:34;23.30;46.70
35325;DHT22;35135;47.510;19.036;2023-04-24T04:03:00;23.30;46.70
35325;DHT22;35135;47.510;19.036;2023-04-24T04:05:25;23.30;46.70
35325;DHT22;35135;47.510;19.036;2023-04-24T04:07:51;23.30;46.70
35325;DHT22;35135;47.510;19.036;2023-04-24T04:10:17;23.30;46.80
35325;DHT22;35135;47.510;19.036;2023-04-24T04:12:42;23.30;46.80
35325;DHT22;35135;47.510;19.036;2023-04-24T04:15:09;23.30;46.70
35325;DHT22;35135;47.510;19.036;2023-04-24T04:17:34;23.30;46.70
35325;DHT22;35135;47.510;19.036;2023-04-24T04:20:00;23.30;46.70
35325;DHT22;35135;47.510;19.036;2023-04-24T04:22:26;23.30;46.70
35325;DHT22;35135;47.510;19.036;2023-04-24T04:24:52;23.30;46.60
35325;DHT22;35135;47.510;19.036;2023-04-24T04:27:18;23.30;46.70
35325;DHT22;35135;47.510;19.036;2023-04-24T04:29:44;23.30;46.70
35325;DHT22;35135;47.510;19.036;2023-04-24T04:32:10;23.30;46.60
35325;DHT22;35135;47.510;19.036;2023-04-24T04:34:36;23.30;46.60
35325;DHT22;35135;47.510;19.036;2023-04-24T04:37:03;23.30;46.60
35325;DHT22;35135;47.510;19.036;2023-04-24T04:39:29;23.30;46.70
35325;DHT22;35135;47.510;19.036;2023-04-24T04:41:55;23.30;46.70
35325;DHT22;35135;47.510;19.036;2023-04-24T04:44:21;23.30;46.80
35325;DHT22;35135;47.510;19.036;2023-04-24T04:46:47;23.30;46.70
35325;DHT22;35135;47.510;19.036;2023-04-24T04:49:13;23.30;46.90
35325;DHT22;35135;47.510;19.036;2023-04-24T04:51:42;23.30;46.70
35325;DHT22;35135;47.510;19.036;2023-04-24T04:54:07;23.30;46.90
35325;DHT22;35135;47.510;19.036;2023-04-24T04:56:33;23.30;46.70
35325;DHT22;35135;47.510;19.036;2023-04-24T04:58:58;23.30;46.70
35325;DHT22;35135;47.510;19.036;2023-04-24T05:01:24;23.30;46.80
35325;DHT22;35135;47.510;19.036;2023-04-24T05:03:53;23.30;46.70
35325;DHT22;35135;47.510;19.036;2023-04-24T05:06:18;23.30;46.80
35325;DHT22;35135;47.510;19.036;2023-04-24T05:08:44;23.30;46.70
35325;DHT22;35135;47.510;19.036;2023-04-24T05:11:10;23.30;46.80
35325;DHT22;35135;47.510;19.036;2023-04-24T05:13:36;23.30;47.00
35325;DHT22;35135;47.510;19.036;2023-04-24T05:16:02;23.30;46.80
35325;DHT22;35135;47.510;19.036;2023-04-24T05:18:28;23.30;47.10
35325;DHT22;35135;47.510;19.036;2023-04-24T05:20:55;23.30;46.90
35325;DHT22;35135;47.510;19.036;2023-04-24T05:23:21;23.30;47.00
35325;DHT22;35135;47.510;19.036;2023-04-24T05:25:57;23.30;47.30
35325;DHT22;35135;47.510;19.036;2023-04-24T05:28:27;23.30;47.10
35325;DHT22;35135;47.510;19.036;2023-04-24T05:30:55;23.30;48.10
35325;DHT22;35135;47.510;19.036;2023-04-24T05:33:25;23.30;46.80
35325;DHT22;35135;47.510;19.036;2023-04-24T05:35:51;23.40;46.60
35325;DHT22;35135;47.510;19.036;2023-04-24T05:38:17;23.30;46.40
35325;DHT22;35135;47.510;19.036;2023-04-24T05:40:46;23.30;46.40
35325;DHT22;35135;47.510;19.036;2023-04-24T05:43:12;23.30;46.40
35325;DHT22;35135;47.510;19.036;2023-04-24T05:45:39;23.30;46.30
35325;DHT22;35135;47.510;19.036;2023-04-24T05:48:05;23.30;46.20
35325;DHT22;35135;47.510;19.036;2023-04-24T05:50:34;23.30;46.30
35325;DHT22;35135;47.510;19.036;2023-04-24T05:53:00;23.30;46.30
35325;DHT22;35135;47.510;19.036;2023-04-24T05:55:30;23.30;46.50
35325;DHT22;35135;47.510;19.036;2023-04-24T05:57:56;23.30;46.40
35325;DHT22;35135;47.510;19.036;2023-04-24T06:00:24;23.30;46.40
35325;DHT22;35135;47.510;19.036;2023-04-24T06:02:50;23.30;46.50
35325;DHT22;35135;47.510;19.036;2023-04-24T06:05:15;23.30;46.40
35325;DHT22;35135;47.510;19.036;2023-04-24T06:07:41;23.30;46.50
35325;DHT22;35135;47.510;19.036;2023-04-24T06:10:07;23.30;46.40
35325;DHT22;35135;47.510;19.036;2023-04-24T06:12:33;23.40;46.70
35325;DHT22;35135;47.510;19.036;2023-04-24T06:14:59;23.40;46.60
35325;DHT22;35135;47.510;19.036;2023-04-24T06:17:25;23.40;46.80
35325;DHT22;35135;47.510;19.036;2023-04-24T06:19:51;23.50;47.00
35325;DHT22;35135;47.510;19.036;2023-04-24T06:22:17;23.50;46.80
35325;DHT22;35135;47.510;19.036;2023-04-24T06:24:42;23.50;47.00
35325;DHT22;35135;47.510;19.036;2023-04-24T06:27:08;23.60;46.90
35325;DHT22;35135;47.510;19.036;2023-04-24T06:29:34;23.60;47.40
35325;DHT22;35135;47.510;19.036;2023-04-24T06:31:59;23.60;46.90
35325;DHT22;35135;47.510;19.036;2023-04-24T06:34:25;23.60;46.80
35325;DHT22;35135;47.510;19.036;2023-04-24T06:36:51;23.50;46.30
35325;DHT22;35135;47.510;19.036;2023-04-24T06:39:16;23.50;45.70
35325;DHT22;35135;47.510;19.036;2023-04-24T06:41:42;23.40;45.50
35325;DHT22;35135;47.510;19.036;2023-04-24T06:44:08;23.40;45.60
35325;DHT22;35135;47.510;19.036;2023-04-24T06:46:33;23.30;45.70
35325;DHT22;35135;47.510;19.036;2023-04-24T06:49:00;23.30;45.80
35325;DHT22;35135;47.510;19.036;2023-04-24T06:51:26;23.30;45.80
35325;DHT22;35135;47.510;19.036;2023-04-24T06:53:55;23.30;45.80
35325;DHT22;35135;47.510;19.036;2023-04-24T06:56:23;23.40;45.90
35325;DHT22;35135;47.510;19.036;2023-04-24T06:58:50;23.30;45.90
35325;DHT22;35135;47.510;19.036;2023-04-24T07:01:16;23.40;46.00
35325;DHT22;35135;47.510;19.036;2023-04-24T07:03:42;23.40;46.00
35325;DHT22;35135;47.510;19.036;2023-04-24T07:06:08;23.30;46.60
35325;DHT22;35135;47.510;19.036;2023-04-24T07:08:35;23.40;46.00
35325;DHT22;35135;47.510;19.036;2023-04-24T07:11:02;23.40;46.10
35325;DHT22;35135;47.510;19.036;2023-04-24T07:13:28;23.30;46.00
35325;DHT22;35135;47.510;19.036;2023-04-24T07:15:54;23.30;46.00
35325;DHT22;35135;47.510;19.036;2023-04-24T07:18:20;23.40;46.10
35325;DHT22;35135;47.510;19.036;2023-04-24T07:20:46;23.40;46.20
35325;DHT22;35135;47.510;19.036;2023-04-24T07:23:12;23.40;46.10
35325;DHT22;35135;47.510;19.036;2023-04-24T07:25:38;23.40;46.20
35325;DHT22;35135;47.510;19.036;2023-04-24T07:28:04;23.40;46.20
35325;DHT22;35135;47.510;19.036;2023-04-24T07:30:31;23.40;46.20
35325;DHT22;35135;47.510;19.036;2023-04-24T07:32:58;23.40;46.10
35325;DHT22;35135;47.510;19.036;2023-04-24T07:35:25;23.40;46.00
35325;DHT22;35135;47.510;19.036;2023-04-24T07:37:54;23.40;46.00
35325;DHT22;35135;47.510;19.036;2023-04-24T07:40:21;23.40;46.20
35325;DHT22;35135;47.510;19.036;2023-04-24T07:42:47;23.40;46.20
35325;DHT22;35135;47.510;19.036;2023-04-24T07:45:16;23.40;46.20
35325;DHT22;35135;47.510;19.036;2023-04-24T07:47:42;23.40;46.20
35325;DHT22;35135;47.510;19.036;2023-04-24T07:50:12;23.40;46.20
35325;DHT22;35135;47.510;19.036;2023-04-24T07:52:38;23.40;46.10
35325;DHT22;35135;47.510;19.036;2023-04-24T07:55:04;23.40;46.20
35325;DHT22;35135;47.510;19.036;2023-04-24T07:57:30;23.50;46.20
35325;DHT22;35135;47.510;19.036;2023-04-24T07:59:55;23.50;46.20
35325;DHT22;35135;47.510;19.036;2023-04-24T08:02:21;23.50;46.10
35325;DHT22;35135;47.510;19.036;2023-04-24T08:04:54;23.50;46.10
35325;DHT22;35135;47.510;19.036;2023-04-24T08:07:20;23.50;46.10
35325;DHT22;35135;47.510;19.036;2023-04-24T08:09:46;23.50;46.10
35325;DHT22;35135;47.510;19.036;2023-04-24T08:12:12;23.60;45.90
35325;DHT22;35135;47.510;19.036;2023-04-24T08:14:37;23.60;46.00
35325;DHT22;35135;47.510;19.036;2023-04-24T08:17:03;23.60;46.10
35325;DHT22;35135;47.510;19.036;2023-04-24T08:19:29;23.60;46.10
35325;DHT22;35135;47.510;19.036;2023-04-24T08:21:55;23.60;46.60
35325;DHT22;35135;47.510;19.036;2023-04-24T08:24:20;23.60;46.10
35325;DHT22;35135;47.510;19.036;2023-04-24T08:26:46;23.60;46.30
35325;DHT22;35135;47.510;19.036;2023-04-24T08:29:15;23.60;46.20
35325;DHT22;35135;47.510;19.036;2023-04-24T08:31:41;23.60;46.10
35325;DHT22;35135;47.510;19.036;2023-04-24T08:34:07;23.60;46.20
35325;DHT22;35135;47.510;19.036;2023-04-24T08:36:32;23.50;46.30
35325;DHT22;35135;47.510;19.036;2023-04-24T08:38:58;23.50;46.30
35325;DHT22;35135;47.510;19.036;2023-04-24T08:41:25;23.50;46.50
35325;DHT22;35135;47.510;19.036;2023-04-24T08:43:52;23.50;46.60
35325;DHT22;35135;47.510;19.036;2023-04-24T08:46:18;23.50;46.50
35325;DHT22;35135;47.510;19.036;2023-04-24T08:48:45;23.50;46.60
35325;DHT22;35135;47.510;19.036;2023-04-24T08:51:11;23.50;46.40
35325;DHT22;35135;47.510;19.036;2023-04-24T08:53:37;23.60;46.30
35325;DHT22;35135;47.510;19.036;2023-04-24T08:56:03;23.60;46.40
35325;DHT22;35135;47.510;19.036;2023-04-24T08:58:31;23.60;46.30
35325;DHT22;35135;47.510;19.036;2023-04-24T09:00:58;23.60;46.30
35325;DHT22;35135;47.510;19.036;2023-04-24T09:03:24;23.60;46.20
35325;DHT22;35135;47.510;19.036;2023-04-24T09:05:50;23.60;46.10
35325;DHT22;35135;47.510;19.036;2023-04-24T09:08:19;23.60;46.00
35325;DHT22;35135;47.510;19.036;2023-04-24T09:10:45;23.60;46.00
35325;DHT22;35135;47.510;19.036;2023-04-24T09:13:10;23.60;46.00
35325;DHT22;35135;47.510;19.036;2023-04-24T09:15:38;23.60;46.00
35325;DHT22;35135;47.510;19.036;2023-04-24T09:18:04;23.70;46.10
35325;DHT22;35135;47.510;19.036;2023-04-24T09:20:31;23.70;46.20
35325;DHT22;35135;47.510;19.036;2023-04-24T09:22:57;23.60;46.10
35325;DHT22;35135;47.510;19.036;2023-04-24T09:25:32;23.70;46.10
35325;DHT22;35135;47.510;19.036;2023-04-24T09:28:01;23.70;46.10
35325;DHT22;35135;47.510;19.036;2023-04-24T09:30:28;23.70;46.00
35325;DHT22;35135;47.510;19.036;2023-04-24T09:33:10;23.70;46.00
35325;DHT22;35135;47.510;19.036;2023-04-24T09:35:37;23.70;45.90
35325;DHT22;35135;47.510;19.036;2023-04-24T09:38:05;23.70;46.00
35325;DHT22;35135;47.510;19.036;2023-04-24T09:40:34;23.70;46.10
35325;DHT22;35135;47.510;19.036;2023-04-24T09:43:00;23.70;46.20
35325;DHT22;35135;47.510;19.036;2023-04-24T09:45:31;23.70;46.20
35325;DHT22;35135;47.510;19.036;2023-04-24T09:48:00;23.70;46.20
35325;DHT22;35135;47.510;19.036;2023-04-24T09:50:26;23.70;46.10
35325;DHT22;35135;47.510;19.036;2023-04-24T09:53:03;23.70;46.30
35325;DHT22;35135;47.510;19.036;2023-04-24T09:55:29;23.70;46.00
35325;DHT22;35135;47.510;19.036;2023-04-24T09:58:00;23.70;46.10
35325;DHT22;35135;47.510;19.036;2023-04-24T10:00:28;23.70;46.10
35325;DHT22;35135;47.510;19.036;2023-04-24T10:02:58;23.70;46.10
35325;DHT22;35135;47.510;19.036;2023-04-24T10:05:31;23.70;46.10
35325;DHT22;35135;47.510;19.036;2023-04-24T10:08:05;23.70;46.00
35325;DHT22;35135;47.510;19.036;2023-04-24T10:10:33;23.70;46.20
35325;DHT22;35135;47.510;19.036;2023-04-24T10:12:59;23.70;46.30
35325;DHT22;35135;47.510;19.036;2023-04-24T10:15:26;23.70;46.20
35325;DHT22;35135;47.510;19.036;2023-04-24T10:17:52;23.70;46.30
35325;DHT22;35135;47.510;19.036;2023-04-24T10:20:20;23.70;46.20
35325;DHT22;35135;47.510;19.036;2023-04-24T10:22:48;23.70;46.30
35325;DHT22;35135;47.510;19.036;2023-04-24T10:25:19;23.70;46.30
35325;DHT22;35135;47.510;19.036;2023-04-24T10:27:48;23.70;46.20
35325;DHT22;35135;47.510;19.036;2023-04-24T10:30:15;23.70;46.30
35325;DHT22;35135;47.510;19.036;2023-04-24T10:32:41;23.70;46.20
35325;DHT22;35135;47.510;19.036;2023-04-24T10:35:08;23.80;46.20
35325;DHT22;35135;47.510;19.036;2023-04-24T10:37:46;23.70;46.60
35325;DHT22;35135;47.510;19.036;2023-04-24T10:40:18;23.70;46.10
35325;DHT22;35135;47.510;19.036;2023-04-24T10:42:49;23.70;46.30
35325;DHT22;35135;47.510;19.036;2023-04-24T10:45:17;23.70;46.30
35325;DHT22;35135;47.510;19.036;2023-04-24T10:47:52;23.70;46.30
35325;DHT22;35135;47.510;19.036;2023-04-24T10:50:17;23.70;46.30
35325;DHT22;35135;47.510;19.036;2023-04-24T10:52:47;23.70;46.10
35325;DHT22;35135;47.510;19.036;2023-04-24T10:55:14;23.70;46.20
35325;DHT22;35135;47.510;19.036;2023-04-24T10:58:01;23.70;46.20
35325;DHT22;35135;47.510;19.036;2023-04-24T11:00:28;23.70;46.30
35325;DHT22;35135;47.510;19.036;2023-04-24T11:02:53;23.70;46.30
35325;DHT22;35135;47.510;19.036;2023-04-24T11:05:21;23.70;46.50
35325;DHT22;35135;47.510;19.036;2023-04-24T11:08:15;23.70;46.40
35325;DHT22;35135;47.510;19.036;2023-04-24T11:10:47;23.70;46.20
35325;DHT22;35135;47.510;19.036;2023-04-24T11:13:22;23.70;46.40
35325;DHT22;35135;47.510;19.036;2023-04-24T11:16:53;23.70;46.40
35325;DHT22;35135;47.510;19.036;2023-04-24T11:21:45;23.70;46.30
35325;DHT22;35135;47.510;19.036;2023-04-24T11:24:37;23.80;46.40
35325;DHT22;35135;47.510;19.036;2023-04-24T11:34:55;23.70;46.20
35325;DHT22;35135;47.510;19.036;2023-04-24T11:37:26;23.80;46.30
35325;DHT22;35135;47.510;19.036;2023-04-24T11:39:53;23.80;46.40
35325;DHT22;35135;47.510;19.036;2023-04-24T11:42:21;23.70;46.20
35325;DHT22;35135;47.510;19.036;2023-04-24T11:44:47;23.80;46.30
35325;DHT22;35135;47.510;19.036;2023-04-24T11:47:14;23.80;46.40
35325;DHT22;35135;47.510;19.036;2023-04-24T11:49:40;23.80;46.30
35325;DHT22;35135;47.510;19.036;2023-04-24T11:52:06;23.80;46.50
35325;DHT22;35135;47.510;19.036;2023-04-24T11:54:32;23.80;46.20
35325;DHT22;35135;47.510;19.036;2023-04-24T11:56:58;23.80;46.50
35325;DHT22;35135;47.510;19.036;2023-04-24T11:59:23;23.80;46.40
35325;DHT22;35135;47.510;19.036;2023-04-24T12:01:49;23.80;46.40
35325;DHT22;35135;47.510;19.036;2023-04-24T12:04:17;23.80;46.50
35325;DHT22;35135;47.510;19.036;2023-04-24T12:07:03;23.80;46.70
35325;DHT22;35135;47.510;19.036;2023-04-24T12:09:57;23.80;46.80
35325;DHT22;35135;47.510;19.036;2023-04-24T12:12:24;23.80;46.70
35325;DHT22;35135;47.510;19.036;2023-04-24T12:14:56;23.80;46.50
35325;DHT22;35135;47.510;19.036;2023-04-24T12:17:30;23.80;46.80
35325;DHT22;35135;47.510;19.036;2023-04-24T12:20:07;23.80;47.10
35325;DHT22;35135;47.510;19.036;2023-04-24T12:25:21;23.70;47.30
35325;DHT22;35135;47.510;19.036;2023-04-24T12:27:57;23.70;47.20
35325;DHT22;35135;47.510;19.036;2023-04-24T12:30:40;23.70;47.40
35325;DHT22;35135;47.510;19.036;2023-04-24T12:33:06;23.70;47.50
35325;DHT22;35135;47.510;19.036;2023-04-24T12:35:33;23.70;47.20
35325;DHT22;35135;47.510;19.036;2023-04-24T12:38:10;23.70;47.50
35325;DHT22;35135;47.510;19.036;2023-04-24T12:40:37;23.70;47.80
35325;DHT22;35135;47.510;19.036;2023-04-24T12:43:16;23.70;47.80
35325;DHT22;35135;47.510;19.036;2023-04-24T12:45:42;23.70;47.70
35325;DHT22;35135;47.510;19.036;2023-04-24T12:48:08;23.70;47.80
35325;DHT22;35135;47.510;19.036;2023-04-24T12:50:33;23.70;48.00
35325;DHT22;35135;47.510;19.036;2023-04-24T12:53:00;23.70;48.20
35325;DHT22;35135;47.510;19.036;2023-04-24T12:55:25;23.70;48.00
35325;DHT22;35135;47.510;19.036;2023-04-24T12:57:51;23.70;47.70
35325;DHT22;35135;47.510;19.036;2023-04-24T13:00:18;23.70;47.80
35325;DHT22;35135;47.510;19.036;2023-04-24T13:02:44;23.70;47.80
35325;DHT22;35135;47.510;19.036;2023-04-24T13:05:10;23.70;47.60
35325;DHT22;35135;47.510;19.036;2023-04-24T13:07:36;23.70;47.50
35325;DHT22;35135;47.510;19.036;2023-04-24T13:10:02;23.70;47.50
35325;DHT22;35135;47.510;19.036;2023-04-24T13:12:28;23.70;47.30
35325;DHT22;35135;47.510;19.036;2023-04-24T13:14:54;23.70;47.40
35325;DHT22;35135;47.510;19.036;2023-04-24T13:17:19;23.70;47.20
35325;DHT22;35135;47.510;19.036;2023-04-24T13:19:45;23.70;47.20
35325;DHT22;35135;47.510;19.036;2023-04-24T13:22:12;23.70;47.20
35325;DHT22;35135;47.510;19.036;2023-04-24T13:24:39;23.70;47.30
35325;DHT22;35135;47.510;19.036;2023-04-24T13:27:08;23.70;47.30
35325;DHT22;35135;47.510;19.036;2023-04-24T13:29:33;23.70;47.40
35325;DHT22;35135;47.510;19.036;2023-04-24T13:31:59;23.70;47.20
35325;DHT22;35135;47.510;19.036;2023-04-24T13:34:25;23.70;47.20
35325;DHT22;35135;47.510;19.036;2023-04-24T13:36:54;23.70;47.20
35325;DHT22;35135;47.510;19.036;2023-04-24T13:39:20;23.70;47.20
35325;DHT22;35135;47.510;19.036;2023-04-24T13:41:46;23.70;47.60
35325;DHT22;35135;47.510;19.036;2023-04-24T13:44:14;23.70;47.80
35325;DHT22;35135;47.510;19.036;2023-04-24T13:46:40;23.70;47.60
35325;DHT22;35135;47.510;19.036;2023-04-24T13:49:05;23.70;47.60
35325;DHT22;35135;47.510;19.036;2023-04-24T13:51:31;23.70;47.90
35325;DHT22;35135;47.510;19.036;2023-04-24T13:53:57;23.70;48.20
35325;DHT22;35135;47.510;19.036;2023-04-24T13:56:23;23.70;48.30
35325;DHT22;35135;47.510;19.036;2023-04-24T13:58:49;23.70;48.30
35325;DHT22;35135;47.510;19.036;2023-04-24T14:01:15;23.70;48.40
35325;DHT22;35135;47.510;19.036;2023-04-24T14:03:41;23.70;48.20
35325;DHT22;35135;47.510;19.036;2023-04-24T14:06:08;23.70;48.30
35325;DHT22;35135;47.510;19.036;2023-04-24T14:08:34;23.70;48.40
35325;DHT22;35135;47.510;19.036;2023-04-24T14:11:00;23.70;48.40
35325;DHT22;35135;47.510;19.036;2023-04-24T14:13:26;23.70;48.30
35325;DHT22;35135;47.510;19.036;2023-04-24T14:15:53;23.70;48.70
35325;DHT22;35135;47.510;19.036;2023-04-24T14:18:18;23.70;48.20
35325;DHT22;35135;47.510;19.036;2023-04-24T14:20:44;23.70;48.60
35325;DHT22;35135;47.510;19.036;2023-04-24T14:23:10;23.70;49.30
35325;DHT22;35135;47.510;19.036;2023-04-24T14:25:36;23.70;48.80
35325;DHT22;35135;47.510;19.036;2023-04-24T14:28:02;23.70;48.80
35325;DHT22;35135;47.510;19.036;2023-04-24T14:30:27;23.70;48.80
35325;DHT22;35135;47.510;19.036;2023-04-24T14:32:53;23.70;48.60
35325;DHT22;35135;47.510;19.036;2023-04-24T14:35:19;23.70;48.50
35325;DHT22;35135;47.510;19.036;2023-04-24T14:37:45;23.70;48.20
35325;DHT22;35135;47.510;19.036;2023-04-24T14:40:11;23.70;48.70
35325;DHT22;35135;47.510;19.036;2023-04-24T14:42:37;23.70;48.80
35325;DHT22;35135;47.510;19.036;2023-04-24T14:45:03;23.70;48.80
35325;DHT22;35135;47.510;19.036;2023-04-24T14:47:29;23.70;49.30
35325;DHT22;35135;47.510;19.036;2023-04-24T14:49:54;23.80;48.70
35325;DHT22;35135;47.510;19.036;2023-04-24T14:52:20;23.70;48.70
35325;DHT22;35135;47.510;19.036;2023-04-24T14:54:46;23.70;48.60
35325;DHT22;35135;47.510;19.036;2023-04-24T14:57:12;23.70;48.60
35325;DHT22;35135;47.510;19.036;2023-04-24T14:59:38;23.70;48.80
35325;DHT22;35135;47.510;19.036;2023-04-24T15:02:05;23.70;48.90
35325;DHT22;35135;47.510;19.036;2023-04-24T15:04:31;23.80;49.50
35325;DHT22;35135;47.510;19.036;2023-04-24T15:06:57;23.70;48.50
35325;DHT22;35135;47.510;19.036;2023-04-24T15:09:23;23.80;48.40
35325;DHT22;35135;47.510;19.036;2023-04-24T15:11:50;23.80;48.50
35325;DHT22;35135;47.510;19.036;2023-04-24T15:14:17;23.80;48.60
35325;DHT22;35135;47.510;19.036;2023-04-24T15:16:43;23.80;48.80
35325;DHT22;35135;47.510;19.036;2023-04-24T15:19:09;23.80;49.00
35325;DHT22;35135;47.510;19.036;2023-04-24T15:21:38;23.80;48.80
35325;DHT22;35135;47.510;19.036;2023-04-24T15:24:06;23.80;49.80
35325;DHT22;35135;47.510;19.036;2023-04-24T15:26:32;23.80;50.10
35325;DHT22;35135;47.510;19.036;2023-04-24T15:28:58;23.80;50.00